Time;durP1;ratioP1;P1;durP2;ratioP2;P2;SDS_P1;SDS_P2;PMS_P1;PMS_P2;Temp;Humidity;BMP_temperature;BMP_pressure;BME280_temperature;BME280_humidity;BME280_pressure;Samples;Min_cycle;Max_cycle;Signal;HPM_P1;HPM_P2
2023/04/30 00:00:22;;;;;;;8.80;3.95;;;;;;;;;;5037552;28;20194;-80
2023/04/30 00:02:48;;;;;;;8.70;4.55;;;;;;;;;;5029626;28;20048;-79
2023/04/30 00:05:13;;;;;;;7.18;3.88;;;;;;;;;;5039315;28;20029;-79
2023/04/30 00:07:41;;;;;;;8.98;4.82;;;;;;;;;;5034331;28;20029;-80
2023/04/30 00:10:08;;;;;;;7.63;3.85;;;;;;;;;;5042474;28;20044;-80
2023/04/30 00:12:34;;;;;;;6.38;3.85;;;;;;;;;;5036530;28;20370;-77
2023/04/30 00:15:00;;;;;;;6.70;3.75;;;;;;;;;;5033725;28;20056;-78
2023/04/30 00:17:26;;;;;;;9.10;3.70;;;;;;;;;;5043311;28;20716;-80
2023/04/30 00:19:52;;;;;;;8.63;4.03;;;;;;;;;;5030993;28;20041;-78
2023/04/30 00:22:18;;;;;;;7.47;4.28;;;;;;;;;;5034198;28;20029;-79
2023/04/30 00:24:44;;;;;;;8.63;4.03;;;;;;;;;;5035828;28;20485;-79
2023/04/30 00:27:10;;;;;;;8.85;4.47;;;;;;;;;;5042363;28;20028;-79
2023/04/30 00:29:36;;;;;;;6.07;3.47;;;;;;;;;;5037829;28;20041;-79
2023/04/30 00:32:02;;;;;;;8.75;4.30;;;;;;;;;;5041659;28;20111;-78
2023/04/30 00:34:29;;;;;;;7.80;4.35;;;;;;;;;;5041391;28;20481;-78
2023/04/30 00:36:55;;;;;;;7.93;4.65;;;;;;;;;;5030795;28;20075;-80
2023/04/30 00:39:21;;;;;;;6.03;3.53;;;;;;;;;;5039113;28;20152;-79
2023/04/30 00:41:47;;;;;;;8.48;3.60;;;;;;;;;;5042196;28;20031;-79
2023/04/30 00:44:13;;;;;;;8.35;4.32;;;;;;;;;;5040119;28;20041;-78
2023/04/30 00:46:39;;;;;;;7.78;4.68;;;;;;;;;;5027883;28;20167;-79
2023/04/30 00:49:05;;;;;;;9.50;4.03;;;;;;;;;;5045817;28;20041;-78
2023/04/30 00:51:32;;;;;;;6.45;3.65;;;;;;;;;;5030633;28;20672;-78
2023/04/30 00:54:01;;;;;;;6.68;3.60;;;;;;;;;;5033278;28;20041;-78
2023/04/30 00:56:28;;;;;;;6.78;3.50;;;;;;;;;;5032993;28;20029;-79
2023/04/30 00:58:56;;;;;;;7.78;3.67;;;11.00;99.90;;;;;;5032463;28;20051;-78
2023/04/30 01:01:23;;;;;;;7.30;3.53;;;;;;;;;;5037272;28;20037;-79
2023/04/30 01:03:49;;;;;;;9.15;5.13;;;;;;;;;;5035483;28;20792;-78
2023/04/30 01:06:15;;;;;;;11.13;5.32;;;;;;;;;;5029766;28;20048;-78
2023/04/30 01:08:41;;;;;;;9.20;4.35;;;;;;;;;;5040836;28;21640;-79
2023/04/30 01:11:12;;;;;;;7.43;3.83;;;;;;;;;;5035114;28;20033;-79
2023/04/30 01:14:07;;;;;;;7.53;3.83;;;;;;;;;;5043132;28;20047;-79
2023/04/30 01:16:35;;;;;;;8.95;5.07;;;;;;;;;;5020329;28;20386;-79
2023/04/30 01:19:29;;;;;;;6.18;3.38;;;;;;;;;;5033327;28;20472;-80
2023/04/30 01:21:58;;;;;;;9.18;4.93;;;;;;;;;;5033306;28;20030;-79
2023/04/30 01:24:32;;;;;;;8.90;4.18;;;10.70;99.90;;;;;;5028195;28;20040;-78
2023/04/30 01:26:58;;;;;;;7.63;4.22;;;;;;;;;;5042000;28;20037;-79
2023/04/30 01:29:24;;;;;;;7.70;3.90;;;;;;;;;;5035309;28;20052;-79
2023/04/30 01:31:50;;;;;;;10.05;5.05;;;;;;;;;;5035024;28;20025;-78
2023/04/30 01:34:16;;;;;;;9.45;4.43;;;;;;;;;;5037035;28;20044;-79
2023/04/30 01:36:53;;;;;;;12.20;5.30;;;;;;;;;;5044035;28;20074;-79
2023/04/30 01:39:31;;;;;;;8.30;4.68;;;;;;;;;;5039353;28;20029;-78
2023/04/30 01:42:13;;;;;;;14.63;5.45;;;;;;;;;;5035430;28;20039;-78
2023/04/30 01:44:43;;;;;;;8.15;4.25;;;;;;;;;;5041357;28;20036;-79
2023/04/30 01:47:24;;;;;;;6.65;3.75;;;;;;;;;;5036216;28;20048;-80
2023/04/30 01:50:08;;;;;;;9.07;4.78;;;;;;;;;;5037522;28;20102;-79
2023/04/30 01:52:43;;;;;;;10.70;3.92;;;10.50;99.90;;;;;;5032801;28;20052;-79
2023/04/30 01:55:20;;;;;;;7.88;3.65;;;;;;;;;;5041600;28;20037;-77
2023/04/30 01:57:53;;;;;;;8.38;4.68;;;;;;;;;;5042789;28;20033;-77
2023/04/30 02:00:19;;;;;;;8.18;4.63;;;;;;;;;;5042584;28;20843;-77
2023/04/30 02:02:45;;;;;;;8.90;3.92;;;;;;;;;;5057415;28;20091;-79
2023/04/30 02:05:11;;;;;;;7.35;3.30;;;;;;;;;;5043278;28;20033;-78
2023/04/30 02:07:38;;;;;;;7.20;4.18;;;;;;;;;;5034954;28;20255;-78
2023/04/30 02:10:05;;;;;;;9.68;4.55;;;;;;;;;;5032107;28;20118;-79
2023/04/30 02:12:31;;;;;;;9.65;4.78;;;;;;;;;;5027428;28;20543;-79
2023/04/30 02:14:57;;;;;;;10.88;4.75;;;;;;;;;;5025637;28;20130;-79
2023/04/30 02:17:23;;;;;;;9.68;4.78;;;;;;;;;;5036296;28;20022;-78
2023/04/30 02:19:49;;;;;;;8.07;4.10;;;;;;;;;;5036801;28;20063;-75
2023/04/30 02:22:15;;;;;;;9.13;5.03;;;;;;;;;;5039452;28;20040;-77
2023/04/30 02:24:41;;;;;;;10.25;5.25;;;;;;;;;;5034583;28;20032;-78
2023/04/30 02:27:07;;;;;;;10.73;4.80;;;;;;;;;;5034896;28;20028;-78
2023/04/30 02:29:33;;;;;;;8.35;4.15;;;;;;;;;;5020652;28;20060;-77
2023/04/30 02:31:59;;;;;;;9.43;5.20;;;;;;;;;;5035103;28;20030;-78
2023/04/30 02:34:25;;;;;;;9.05;3.88;;;;;;;;;;5027143;28;20036;-79
2023/04/30 02:36:51;;;;;;;7.45;3.80;;;;;;;;;;5025473;28;20282;-78
2023/04/30 02:39:17;;;;;;;8.88;4.80;;;;;;;;;;5034026;28;20472;-78
2023/04/30 02:41:43;;;;;;;13.63;4.75;;;;;;;;;;5038390;28;20025;-78
2023/04/30 02:44:09;;;;;;;7.55;4.35;;;;;;;;;;5032707;28;20078;-78
2023/04/30 02:46:35;;;;;;;8.02;4.13;;;;;;;;;;5022305;28;20059;-78
2023/04/30 02:49:01;;;;;;;9.50;5.35;;;;;;;;;;5033702;28;20033;-77
2023/04/30 02:51:27;;;;;;;9.55;5.50;;;;;;;;;;5035777;28;20021;-78
2023/04/30 02:53:53;;;;;;;8.52;4.95;;;;;;;;;;5033517;28;20025;-78
2023/04/30 02:56:20;;;;;;;8.05;3.83;;;;;;;;;;5028740;28;20022;-78
2023/04/30 02:58:46;;;;;;;9.90;4.82;;;;;;;;;;5027056;28;20068;-78
2023/04/30 03:01:12;;;;;;;11.52;4.22;;;;;;;;;;5027061;28;21541;-78
2023/04/30 03:03:38;;;;;;;8.73;4.13;;;;;;;;;;5030091;28;20165;-79
2023/04/30 03:06:04;;;;;;;7.90;4.47;;;;;;;;;;5036432;28;20032;-77
2023/04/30 03:08:29;;;;;;;9.50;5.03;;;10.30;99.90;;;;;;5030968;28;20390;-78
2023/04/30 03:10:55;;;;;;;9.48;4.85;;;;;;;;;;5029201;28;20040;-78
2023/04/30 03:13:24;;;;;;;10.82;5.07;;;;;;;;;;5044230;28;20031;-77
2023/04/30 03:15:56;;;;;;;11.27;5.38;;;;;;;;;;5033283;28;20072;-77
2023/04/30 03:18:21;;;;;;;11.88;5.72;;;;;;;;;;5036782;28;20079;-77
2023/04/30 03:20:47;;;;;;;8.05;4.25;;;;;;;;;;5045072;28;20045;-77
2023/04/30 03:23:13;;;;;;;6.93;3.75;;;;;;;;;;5031795;28;20875;-78
2023/04/30 03:25:39;;;;;;;12.65;4.78;;;10.20;99.90;;;;;;5041728;28;20504;-77
2023/04/30 03:28:05;;;;;;;9.95;5.53;;;;;;;;;;5036057;28;20404;-77
2023/04/30 03:30:31;;;;;;;10.65;5.57;;;;;;;;;;5030178;28;20029;-77
2023/04/30 03:32:57;;;;;;;10.02;5.00;;;;;;;;;;5043951;28;20543;-78
2023/04/30 03:35:23;;;;;;;8.65;5.25;;;;;;;;;;5042601;28;20033;-78
2023/04/30 03:37:49;;;;;;;12.88;5.60;;;;;;;;;;5038246;28;20033;-77
2023/04/30 03:40:15;;;;;;;13.38;5.45;;;;;;;;;;5033263;28;20079;-78
2023/04/30 03:42:41;;;;;;;10.15;5.13;;;;;;;;;;5035694;28;20029;-79
2023/04/30 03:45:07;;;;;;;9.98;5.15;;;;;;;;;;5038325;28;20025;-79
2023/04/30 03:47:33;;;;;;;10.07;5.18;;;;;;;;;;5027375;28;20457;-78
2023/04/30 03:49:59;;;;;;;8.10;4.28;;;;;;;;;;5037336;28;20104;-78
2023/04/30 03:52:25;;;;;;;9.98;4.97;;;;;;;;;;5033321;28;20112;-78
2023/04/30 03:54:51;;;;;;;8.95;5.00;;;;;;;;;;5035943;28;20025;-78
2023/04/30 03:57:17;;;;;;;14.20;5.80;;;;;;;;;;5029275;28;20505;-78
2023/04/30 03:59:43;;;;;;;12.85;5.60;;;;;;;;;;5033288;28;20385;-78
2023/04/30 04:02:09;;;;;;;8.25;4.90;;;;;;;;;;5044865;28;20035;-79
2023/04/30 04:04:35;;;;;;;11.07;5.50;;;;;;;;;;5029019;28;20030;-78
2023/04/30 04:07:02;;;;;;;11.00;6.32;;;;;;;;;;5044617;28;20099;-78
2023/04/30 04:09:28;;;;;;;11.50;5.53;;;;;;;;;;5037998;28;20044;-78
2023/04/30 04:11:55;;;;;;;8.23;4.32;;;;;;;;;;5038070;28;20389;-79
2023/04/30 04:14:21;;;;;;;8.15;4.68;;;;;;;;;;5038164;28;20096;-78
2023/04/30 04:16:47;;;;;;;9.25;5.55;;;;;;;;;;5036924;28;20046;-78
2023/04/30 04:19:13;;;;;;;11.07;5.35;;;;;;;;;;5035432;28;20036;-79
2023/04/30 04:21:39;;;;;;;12.10;6.53;;;;;;;;;;5050063;28;20017;-79
2023/04/30 04:24:07;;;;;;;10.75;5.03;;;;;;;;;;5039618;28;20036;-78
2023/04/30 04:26:36;;;;;;;10.13;5.57;;;;;;;;;;5044635;28;20029;-79
2023/04/30 04:29:07;;;;;;;11.70;5.80;;;;;;;;;;5041575;28;20153;-77
2023/04/30 04:31:34;;;;;;;11.98;5.50;;;;;;;;;;5041832;28;20132;-78
2023/04/30 04:34:03;;;;;;;13.15;5.82;;;;;;;;;;5038234;28;20035;-78
2023/04/30 04:36:29;;;;;;;9.32;4.82;;;;;;;;;;5047362;28;20477;-78
2023/04/30 04:39:00;;;;;;;10.85;5.70;;;;;;;;;;5038429;28;20025;-77
2023/04/30 04:41:27;;;;;;;9.55;5.25;;;;;;;;;;5040548;28;20052;-79
2023/04/30 04:43:53;;;;;;;8.45;4.35;;;;;;;;;;5041606;28;20029;-78
2023/04/30 04:46:19;;;;;;;8.40;5.07;;;;;;;;;;5040021;28;20043;-78
2023/04/30 04:48:46;;;;;;;10.88;5.22;;;;;;;;;;5046677;28;20037;-77
2023/04/30 04:51:12;;;;;;;9.80;5.28;;;;;;;;;;5042892;28;20116;-77
2023/04/30 04:53:38;;;;;;;9.82;4.88;;;;;;;;;;5042812;28;20693;-77
2023/04/30 04:56:04;;;;;;;10.30;5.28;;;10.70;99.90;;;;;;5047928;28;20025;-78
2023/04/30 04:58:30;;;;;;;9.70;5.55;;;;;;;;;;5033538;28;20041;-78
2023/04/30 05:00:56;;;;;;;13.43;4.80;;;10.80;99.90;;;;;;5041619;28;20409;-78
2023/04/30 05:03:22;;;;;;;8.30;4.70;;;;;;;;;;5052138;28;20056;-77
2023/04/30 05:05:48;;;;;;;9.40;4.30;;;;;;;;;;5037928;28;20029;-78
2023/04/30 05:08:15;;;;;;;8.85;5.10;;;;;;;;;;5045343;28;20040;-77
2023/04/30 05:10:41;;;;;;;11.45;5.40;;;;;;;;;;5047758;28;20893;-77
2023/04/30 05:13:06;;;;;;;10.55;5.47;;;;;;;;;;5040545;28;20071;-78
2023/04/30 05:15:32;;;;;;;13.82;7.38;;;;;;;;;;5035047;28;20776;-78
2023/04/30 05:17:58;;;;;;;10.38;5.55;;;;;;;;;;5044464;28;20381;-77
2023/04/30 05:20:24;;;;;;;9.07;5.45;;;;;;;;;;5045825;28;20366;-78
2023/04/30 05:22:50;;;;;;;9.73;5.22;;;;;;;;;;5035193;28;20029;-77
2023/04/30 05:25:16;;;;;;;8.93;4.53;;;;;;;;;;5044962;28;20079;-78
2023/04/30 05:27:42;;;;;;;12.15;5.85;;;;;;;;;;5032533;28;20108;-79
2023/04/30 05:30:08;;;;;;;9.55;5.30;;;11.40;99.90;;;;;;5040305;28;20156;-77
2023/04/30 05:32:34;;;;;;;11.40;4.80;;;;;;;;;;5031236;28;20029;-77
2023/04/30 05:35:00;;;;;;;9.10;4.65;;;;;;;;;;5052270;28;20075;-79
2023/04/30 05:37:26;;;;;;;11.10;5.55;;;;;;;;;;5041256;28;20087;-80
2023/04/30 05:39:52;;;;;;;8.63;4.93;;;;;;;;;;5048123;28;20053;-79
2023/04/30 05:42:19;;;;;;;7.22;4.47;;;;;;;;;;5046663;28;20432;-79
2023/04/30 05:44:45;;;;;;;7.93;4.82;;;;;;;;;;5035438;28;20044;-79
2023/04/30 05:47:11;;;;;;;7.50;4.88;;;;;;;;;;5046466;28;20388;-80
2023/04/30 05:49:37;;;;;;;11.85;6.05;;;;;;;;;;5050762;28;20473;-80
2023/04/30 05:52:03;;;;;;;8.18;4.78;;;;;;;;;;5034830;28;20470;-81
2023/04/30 05:54:29;;;;;;;11.35;4.95;;;;;;;;;;5019865;28;20139;-80
2023/04/30 05:56:55;;;;;;;7.93;5.28;;;;;;;;;;5030507;28;20025;-81
2023/04/30 05:59:21;;;;;;;6.97;4.10;;;;;;;;;;5032173;28;20036;-80
2023/04/30 06:01:47;;;;;;;9.68;4.68;;;12.70;99.90;;;;;;5024221;28;20052;-80
2023/04/30 06:04:13;;;;;;;7.85;4.63;;;;;;;;;;5023113;28;20025;-80
2023/04/30 06:06:39;;;;;;;8.57;4.88;;;;;;;;;;5036604;28;20044;-81
2023/04/30 06:09:05;;;;;;;11.07;5.72;;;;;;;;;;5032206;28;20558;-81
2023/04/30 06:11:31;;;;;;;8.07;4.15;;;;;;;;;;5029153;28;20094;-81
2023/04/30 06:13:57;;;;;;;9.02;4.88;;;;;;;;;;5021001;28;20954;-80
2023/04/30 06:16:23;;;;;;;11.73;5.22;;;;;;;;;;5026323;28;20033;-80
2023/04/30 06:18:49;;;;;;;10.82;5.63;;;12.80;99.90;;;;;;5045515;28;20020;-82
2023/04/30 06:21:15;;;;;;;11.13;5.43;;;;;;;;;;5050595;28;20025;-81
2023/04/30 06:23:41;;;;;;;11.48;5.00;;;;;;;;;;5027850;28;20036;-79
2023/04/30 06:26:07;;;;;;;8.23;4.53;;;;;;;;;;5032405;28;20033;-82
2023/04/30 06:28:33;;;;;;;10.43;5.20;;;;;;;;;;5031574;28;20065;-80
2023/04/30 06:30:59;;;;;;;7.43;4.72;;;;;;;;;;5024266;28;20040;-79
2023/04/30 06:33:25;;;;;;;10.98;4.65;;;;;;;;;;5031061;28;20086;-80
2023/04/30 06:35:54;;;;;;;12.32;4.97;;;;;;;;;;5031793;28;20725;-81
2023/04/30 06:38:20;;;;;;;8.77;4.93;;;;;;;;;;5021053;28;20337;-81
2023/04/30 06:40:46;;;;;;;7.07;3.92;;;;;;;;;;5022350;28;20037;-81
2023/04/30 06:43:12;;;;;;;8.10;4.65;;;;;;;;;;5012283;28;20029;-80
2023/04/30 06:45:38;;;;;;;7.93;5.05;;;;;;;;;;5016419;28;20105;-81
2023/04/30 06:48:04;;;;;;;8.15;3.97;;;;;;;;;;5012646;28;20542;-81
2023/04/30 06:50:30;;;;;;;8.50;4.20;;;;;;;;;;5046600;28;20460;-80
2023/04/30 06:52:56;;;;;;;8.35;5.25;;;;;;;;;;5059710;28;20028;-81
2023/04/30 06:55:23;;;;;;;6.68;3.60;;;;;;;;;;5063930;28;20057;-81
2023/04/30 06:57:49;;;;;;;9.05;4.82;;;;;;;;;;5017783;28;20507;-81
2023/04/30 07:03:18;;;;;;;9.02;4.35;;;;;;;;;;5000516;28;20551;-81
2023/04/30 07:05:44;;;;;;;10.00;4.88;;;;;;;;;;5017181;28;20037;-81
2023/04/30 07:08:10;;;;;;;9.57;4.72;;;;;;;;;;5016714;28;20040;-81
2023/04/30 07:10:36;;;;;;;17.23;4.68;;;;;;;;;;5023475;28;20041;-80
2023/04/30 07:13:02;;;;;;;11.18;3.85;;;;;;;;;;5006295;28;20033;-80
2023/04/30 07:15:28;;;;;;;10.32;4.15;;;;;;;;;;5019143;28;20029;-81
2023/04/30 07:17:54;;;;;;;12.82;5.45;;;;;;;;;;5011186;28;20080;-80
2023/04/30 07:20:20;;;;;;;7.82;4.65;;;;;;;;;;5029208;28;20036;-80
2023/04/30 07:22:46;;;;;;;7.45;4.63;;;;;;;;;;5027422;28;20859;-79
2023/04/30 07:25:12;;;;;;;8.57;4.93;;;;;;;;;;5041983;28;20673;-79
2023/04/30 07:27:39;;;;;;;7.25;4.07;;;14.40;99.90;;;;;;5047146;28;20148;-80
2023/04/30 07:30:05;;;;;;;8.73;4.43;;;;;;;;;;5033306;28;20577;-80
2023/04/30 07:32:32;;;;;;;8.73;4.38;;;;;;;;;;5037842;28;20199;-79
2023/04/30 07:34:58;;;;;;;7.90;4.13;;;;;;;;;;5035078;28;20032;-82
2023/04/30 07:37:24;;;;;;;14.77;4.68;;;;;;;;;;5041890;28;20032;-80
2023/04/30 07:39:50;;;;;;;7.13;3.80;;;;;;;;;;5028236;28;20035;-80
2023/04/30 07:42:16;;;;;;;12.80;5.45;;;;;;;;;;5037423;28;20135;-79
2023/04/30 07:44:42;;;;;;;7.00;4.05;;;;;;;;;;5045699;28;20434;-79
2023/04/30 07:47:08;;;;;;;13.52;4.95;;;;;;;;;;5036428;28;20103;-80
2023/04/30 07:49:34;;;;;;;6.55;4.05;;;;;;;;;;5048395;28;20087;-79
2023/04/30 07:52:00;;;;;;;10.18;5.28;;;;;;;;;;5036138;28;20037;-80
2023/04/30 07:54:27;;;;;;;10.70;4.40;;;;;;;;;;5043656;28;20037;-78
2023/04/30 07:56:53;;;;;;;6.97;3.47;;;;;;;;;;5049791;28;20473;-79
2023/04/30 07:59:20;;;;;;;11.27;4.40;;;;;;;;;;5032659;28;20060;-80
2023/04/30 08:01:46;;;;;;;8.73;4.60;;;;;;;;;;5028701;28;20033;-80
2023/04/30 08:04:12;;;;;;;9.50;4.70;;;;;;;;;;5035466;28;20029;-80
2023/04/30 08:06:38;;;;;;;6.97;3.50;;;;;;;;;;5036934;28;20034;-80
2023/04/30 08:09:04;;;;;;;7.03;4.10;;;;;;;;;;5035502;28;20189;-80
2023/04/30 08:11:30;;;;;;;11.07;4.45;;;;;;;;;;5039261;28;20097;-81
2023/04/30 08:13:55;;;;;;;10.73;4.57;;;15.60;99.90;;;;;;5042130;28;20124;-80
2023/04/30 08:16:21;;;;;;;7.78;3.30;;;;;;;;;;5041923;28;20052;-79
2023/04/30 08:18:48;;;;;;;9.27;4.82;;;;;;;;;;5037808;28;20053;-80
2023/04/30 08:21:14;;;;;;;9.07;3.78;;;;;;;;;;5052760;28;20496;-79
2023/04/30 08:23:40;;;;;;;6.80;3.55;;;15.90;99.90;;;;;;5060143;28;20025;-79
2023/04/30 08:26:06;;;;;;;8.05;3.63;;;;;;;;;;5020497;28;20711;-79
2023/04/30 08:28:32;;;;;;;8.73;2.83;;;;;;;;;;5036627;28;21889;-80
2023/04/30 08:30:58;;;;;;;5.63;2.85;;;;;;;;;;5028860;28;20045;-80
2023/04/30 08:33:24;;;;;;;5.25;3.15;;;;;;;;;;5018510;28;20047;-79
2023/04/30 08:35:50;;;;;;;5.25;2.83;;;;;;;;;;5041686;28;20111;-79
2023/04/30 08:38:17;;;;;;;8.82;3.08;;;;;;;;;;5040394;28;21334;-79
2023/04/30 08:40:46;;;;;;;6.22;2.75;;;;;;;;;;5025157;28;20444;-80
2023/04/30 08:43:13;;;;;;;5.80;2.65;;;;;;;;;;5032984;28;20052;-79
2023/04/30 08:45:40;;;;;;;5.03;2.35;;;;;;;;;;5026521;28;20286;-79
2023/04/30 08:48:09;;;;;;;3.70;2.28;;;;;;;;;;5038698;28;20033;-79
2023/04/30 08:50:35;;;;;;;6.05;2.88;;;;;;;;;;5029252;28;20055;-79
2023/04/30 08:53:02;;;;;;;5.32;2.92;;;;;;;;;;5040911;28;20021;-79
2023/04/30 08:55:28;;;;;;;3.65;1.98;;;;;;;;;;5036165;28;20049;-79
2023/04/30 08:57:54;;;;;;;4.53;2.10;;;;;;;;;;5026177;28;20132;-79
2023/04/30 09:00:20;;;;;;;6.18;2.85;;;;;;;;;;5017489;28;20031;-79
2023/04/30 09:02:46;;;;;;;4.95;2.60;;;;;;;;;;5035740;28;20036;-80
2023/04/30 09:05:13;;;;;;;6.93;4.30;;;;;;;;;;5025558;28;20026;-79
2023/04/30 09:07:41;;;;;;;6.35;2.60;;;25.20;66.50;;;;;;5037351;28;20472;-80
2023/04/30 09:10:21;;;;;;;4.20;2.33;;;25.50;60.30;;;;;;5035614;28;20041;-79
2023/04/30 09:13:06;;;;;;;4.95;2.30;;;;;;;;;;5046854;28;22113;-79
2023/04/30 09:15:33;;;;;;;4.18;2.33;;;;;;;;;;5032162;28;20029;-79
2023/04/30 09:18:13;;;;;;;4.00;2.25;;;;;;;;;;5032706;28;20075;-80
2023/04/30 09:20:53;;;;;;;2.65;1.40;;;;;;;;;;5027033;28;20314;-80
2023/04/30 09:23:19;;;;;;;3.15;1.50;;;;;;;;;;5032473;28;20413;-79
2023/04/30 09:25:45;;;;;;;3.03;1.35;;;;;;;;;;5035705;28;20021;-80
2023/04/30 09:28:12;;;;;;;6.75;2.33;;;;;;;;;;5024758;28;20103;-79
2023/04/30 09:30:39;;;;;;;3.08;1.52;;;19.20;73.80;;;;;;5027413;28;20095;-80
2023/04/30 09:33:05;;;;;;;4.07;1.55;;;18.10;74.40;;;;;;5025080;28;20559;-80
2023/04/30 09:35:43;;;;;;;3.67;2.05;;;;;;;;;;5036124;28;20024;-79
2023/04/30 09:38:27;;;;;;;5.05;1.80;;;;;;;;;;5031205;28;20024;-80
2023/04/30 09:40:54;;;;;;;2.55;1.10;;;;;;;;;;5031840;28;20049;-79
2023/04/30 09:43:19;;;;;;;1.55;1.00;;;;;;;;;;5031881;28;20109;-79
2023/04/30 09:45:47;;;;;;;2.60;1.30;;;;;;;;;;5035920;28;20112;-80
2023/04/30 09:48:17;;;;;;;5.57;2.08;;;;;;;;;;5020255;28;20828;-79
2023/04/30 09:50:46;;;;;;;4.40;1.40;;;;;;;;;;5034328;28;20694;-80
2023/04/30 09:53:13;;;;;;;2.95;1.20;;;19.50;77.10;;;;;;5040205;28;20057;-80
2023/04/30 09:55:48;;;;;;;2.63;1.50;;;19.60;76.70;;;;;;5025656;28;20128;-79
2023/04/30 09:58:14;;;;;;;4.32;1.42;;;;;;;;;;5050389;28;20112;-78
2023/04/30 10:00:41;;;;;;;2.78;1.58;;;18.30;81.40;;;;;;5040728;28;20024;-79
2023/04/30 10:03:11;;;;;;;3.08;1.58;;;;;;;;;;5024785;28;20041;-79
2023/04/30 10:05:40;;;;;;;3.40;2.08;;;;;;;;;;5028379;28;20206;-81
2023/04/30 10:08:07;;;;;;;4.72;1.70;;;;;;;;;;5041927;28;20041;-80
2023/04/30 10:10:33;;;;;;;3.03;1.58;;;;;;;;;;5041990;28;20084;-79
2023/04/30 10:13:03;;;;;;;2.53;1.65;;;;;;;;;;5030906;28;20017;-79
2023/04/30 10:15:38;;;;;;;4.05;2.00;;;;;;;;;;5030112;28;20100;-79
2023/04/30 10:18:10;;;;;;;2.95;1.33;;;;;;;;;;5020828;28;20039;-81
2023/04/30 10:20:37;;;;;;;4.68;1.98;;;;;;;;;;5045303;28;20024;-80
2023/04/30 10:23:03;;;;;;;2.55;1.35;;;;;;;;;;5022460;28;20139;-80
2023/04/30 10:25:29;;;;;;;5.68;1.35;;;;;;;;;;5028876;28;20036;-79
2023/04/30 10:27:56;;;;;;;2.75;1.42;;;;;;;;;;5043070;28;20022;-80
2023/04/30 10:30:22;;;;;;;2.85;1.40;;;;;;;;;;5041647;28;21057;-80
2023/04/30 10:32:51;;;;;;;5.07;1.40;;;;;;;;;;5020382;28;21180;-80
2023/04/30 10:35:21;;;;;;;2.63;1.58;;;;;;;;;;5017990;28;20087;-80
2023/04/30 10:37:50;;;;;;;5.00;1.30;;;;;;;;;;5022400;28;20029;-79
2023/04/30 10:40:18;;;;;;;4.95;0.90;;;;;;;;;;5038092;28;20401;-80
2023/04/30 10:42:48;;;;;;;2.65;1.20;;;;;;;;;;5027985;28;20017;-80
2023/04/30 10:45:15;;;;;;;2.60;1.10;;;;;;;;;;5021719;28;20036;-81
2023/04/30 10:47:44;;;;;;;2.85;1.20;;;;;;;;;;5027265;28;20536;-79
2023/04/30 10:50:10;;;;;;;7.20;2.50;;;;;;;;;;5019541;28;20056;-80
2023/04/30 10:52:37;;;;;;;3.55;1.95;;;;;;;;;;5028359;28;20080;-81
2023/04/30 10:55:07;;;;;;;3.92;1.35;;;;;;;;;;5026453;28;20124;-83
2023/04/30 10:57:40;;;;;;;2.40;1.35;;;;;;;;;;5029955;28;20029;-81
2023/04/30 11:00:08;;;;;;;2.78;1.67;;;18.80;76.60;;;;;;5026209;28;20039;-82
2023/04/30 11:02:47;;;;;;;8.02;1.70;;;;;;;;;;5031842;28;20496;-83
2023/04/30 11:05:14;;;;;;;2.78;1.73;;;;;;;;;;5032699;28;20041;-81
2023/04/30 11:07:50;;;;;;;6.57;1.60;;;18.50;76.20;;;;;;5028120;28;20025;-81
2023/04/30 11:10:20;;;;;;;2.45;1.65;;;;;;;;;;5047467;28;20047;-82
2023/04/30 11:12:53;;;;;;;3.30;1.45;;;;;;;;;;5016598;28;20037;-86
2023/04/30 11:15:19;;;;;;;;;;;;;;;;;;5023804;28;20152;-82
2023/04/30 11:17:45;;;;;;;5.80;2.88;;;;;;;;;;5029143;28;20000;-82
2023/04/30 11:20:18;;;;;;;4.63;2.55;;;;;;;;;;5023449;28;20041;-82
2023/04/30 11:22:44;;;;;;;11.05;7.75;;;;;;;;;;5032359;28;20036;-82
2023/04/30 11:25:18;;;;;;;8.05;4.85;;;;;;;;;;5031888;28;20936;-82
2023/04/30 11:27:44;;;;;;;4.93;1.23;;;;;;;;;;5023285;28;20155;-82
2023/04/30 11:30:13;;;;;;;2.70;1.35;;;19.20;72.40;;;;;;5023612;28;20037;-83
2023/04/30 11:32:40;;;;;;;3.05;1.30;;;;;;;;;;5029689;28;20026;-82
2023/04/30 11:35:06;;;;;;;2.00;1.13;;;;;;;;;;5048404;28;20191;-80
2023/04/30 11:37:32;;;;;;;2.33;1.10;;;;;;;;;;5033996;28;20022;-82
2023/04/30 11:40:06;;;;;;;1.90;1.05;;;;;;;;;;5035645;28;20384;-83
2023/04/30 11:42:35;;;;;;;2.00;1.10;;;;;;;;;;5023493;28;20521;-83
2023/04/30 11:45:11;;;;;;;3.30;1.10;;;;;;;;;;5056538;28;20024;-83
2023/04/30 11:47:47;;;;;;;1.85;1.08;;;;;;;;;;5038646;28;20021;-83
2023/04/30 11:50:13;;;;;;;2.63;1.25;;;;;;;;;;5033523;28;20044;-83
2023/04/30 11:52:40;;;;;;;1.75;1.00;;;;;;;;;;5044512;28;20032;-84
2023/04/30 11:55:18;;;;;;;2.47;1.17;;;19.60;74.30;;;;;;5056226;28;20009;-83
2023/04/30 11:57:45;;;;;;;2.67;1.42;;;;;;;;;;5051009;28;20033;-84
2023/04/30 12:00:16;;;;;;;4.55;0.93;;;19.80;74.20;;;;;;5054115;28;20037;-84
2023/04/30 12:02:44;;;;;;;5.28;1.10;;;;;;;;;;5039398;28;20029;-81
2023/04/30 12:05:14;;;;;;;1.35;0.80;;;;;;;;;;5033241;28;20036;-81
2023/04/30 12:07:45;;;;;;;3.28;1.00;;;;;;;;;;5033525;28;20029;-85
2023/04/30 12:10:11;;;;;;;2.42;0.98;;;;;;;;;;5026950;28;20076;-85
2023/04/30 12:12:37;;;;;;;1.73;0.95;;;;;;;;;;5026952;28;20032;-83
2023/04/30 12:15:13;;;;;;;1.67;0.68;;;;;;;;;;5033324;28;20029;-87
2023/04/30 12:17:39;;;;;;;3.75;1.75;;;;;;;;;;5030903;28;20217;-86
2023/04/30 12:20:05;;;;;;;2.17;1.10;;;;;;;;;;5043160;28;20030;-85
2023/04/30 12:22:31;;;;;;;2.15;0.90;;;;;;;;;;5050130;28;20134;-85
2023/04/30 12:24:58;;;;;;;3.08;1.10;;;20.40;72.40;;;;;;5050087;28;20029;-86
2023/04/30 12:27:24;;;;;;;2.75;1.13;;;;;;;;;;5038289;28;20050;-86
2023/04/30 12:29:53;;;;;;;2.60;1.02;;;;;;;;;;5052914;28;22538;-85
2023/04/30 12:32:20;;;;;;;2.47;1.20;;;20.60;69.20;;;;;;5038979;28;20033;-84
2023/04/30 12:34:47;;;;;;;3.47;1.27;;;;;;;;;;5048564;28;20033;-86
2023/04/30 12:37:16;;;;;;;2.05;0.93;;;;;;;;;;5043012;28;20056;-85
2023/04/30 12:39:42;;;;;;;2.05;1.23;;;;;;;;;;5038821;28;20047;-85
2023/04/30 12:42:09;;;;;;;2.55;1.10;;;;;;;;;;5042549;28;20040;-85
2023/04/30 12:44:44;;;;;;;1.88;0.90;;;19.30;68.70;;;;;;5058240;28;20029;-85
2023/04/30 12:47:10;;;;;;;2.92;1.27;;;;;;;;;;5062911;28;20107;-85
2023/04/30 12:49:36;;;;;;;2.72;1.27;;;;;;;;;;5066854;28;20075;-85
2023/04/30 12:52:06;;;;;;;1.90;0.88;;;;;;;;;;5057304;28;20030;-86
2023/04/30 12:54:32;;;;;;;2.67;1.10;;;;;;;;;;5049910;28;20028;-85
2023/04/30 12:57:00;;;;;;;2.38;1.38;;;;;;;;;;5048070;28;20037;-84
2023/04/30 12:59:26;;;;;;;2.70;1.05;;;;;;;;;;5042649;28;20021;-85
2023/04/30 13:01:53;;;;;;;2.15;1.17;;;;;;;;;;5040607;28;20032;-85
2023/04/30 13:04:19;;;;;;;2.58;0.90;;;;;;;;;;5039975;28;20078;-85
2023/04/30 13:06:45;;;;;;;1.90;1.00;;;;;;;;;;5042102;28;20584;-85
2023/04/30 13:09:11;;;;;;;2.72;1.17;;;;;;;;;;5047595;28;20045;-86
2023/04/30 13:11:37;;;;;;;3.33;1.42;;;;;;;;;;5047049;28;20504;-84
2023/04/30 13:14:04;;;;;;;4.45;1.20;;;;;;;;;;5040504;28;20059;-86
2023/04/30 13:16:30;;;;;;;4.40;1.58;;;;;;;;;;5046764;28;20036;-86
2023/04/30 13:18:56;;;;;;;2.58;1.30;;;;;;;;;;5040308;28;20045;-85
2023/04/30 13:21:23;;;;;;;1.98;1.27;;;;;;;;;;5040768;28;20025;-87
2023/04/30 13:23:49;;;;;;;1.42;0.90;;;;;;;;;;5050749;28;20052;-86
2023/04/30 13:26:16;;;;;;;2.97;1.05;;;;;;;;;;5044241;28;20021;-86
2023/04/30 13:28:42;;;;;;;2.63;1.30;;;;;;;;;;5039300;28;20389;-86
2023/04/30 13:31:08;;;;;;;3.80;1.00;;;;;;;;;;5039697;28;20029;-85
2023/04/30 13:33:34;;;;;;;1.60;0.70;;;;;;;;;;5026513;28;20098;-88
2023/04/30 13:36:00;;;;;;;2.65;0.95;;;;;;;;;;5034418;28;20022;-88
2023/04/30 13:38:26;;;;;;;3.20;0.98;;;;;;;;;;5046290;28;20055;-85
2023/04/30 13:40:52;;;;;;;2.53;1.15;;;;;;;;;;5013197;28;20838;-85
2023/04/30 13:43:18;;;;;;;1.60;0.93;;;;;;;;;;5036137;28;20063;-87
2023/04/30 13:45:44;;;;;;;0.90;0.57;;;;;;;;;;5039554;28;20041;-86
2023/04/30 13:48:10;;;;;;;2.63;1.20;;;;;;;;;;5021041;28;20025;-84
2023/04/30 13:50:36;;;;;;;3.58;0.93;;;;;;;;;;5038787;28;20671;-83
2023/04/30 13:53:02;;;;;;;2.38;1.33;;;;;;;;;;5040850;28;20377;-83
2023/04/30 13:55:28;;;;;;;2.33;1.00;;;;;;;;;;5035390;28;20051;-84
2023/04/30 13:57:55;;;;;;;2.95;1.50;;;;;;;;;;5022688;28;20109;-82
2023/04/30 14:00:21;;;;;;;5.88;2.88;;;;;;;;;;5045247;28;20021;-81
2023/04/30 14:02:47;;;;;;;2.60;1.45;;;;;;;;;;5029782;28;20021;-83
2023/04/30 14:05:13;;;;;;;1.92;0.98;;;;;;;;;;5034683;28;20485;-83
2023/04/30 14:07:38;;;;;;;4.32;0.70;;;;;;;;;;5029215;28;20039;-82
2023/04/30 14:10:05;;;;;;;3.40;1.00;;;;;;;;;;5034052;28;21073;-82
2023/04/30 14:12:31;;;;;;;1.83;0.90;;;;;;;;;;5021530;28;20032;-84
2023/04/30 14:14:57;;;;;;;1.92;0.93;;;;;;;;;;5035023;28;20021;-83
2023/04/30 14:17:25;;;;;;;2.10;0.95;;;;;;;;;;5028498;28;20018;-82
2023/04/30 14:19:52;;;;;;;2.30;0.90;;;;;;;;;;5036245;28;20072;-83
2023/04/30 14:22:17;;;;;;;4.45;1.33;;;;;;;;;;5036010;28;20029;-82
2023/04/30 14:24:44;;;;;;;2.60;1.20;;;;;;;;;;5035806;28;20032;-83
2023/04/30 14:27:09;;;;;;;2.03;1.25;;;;;;;;;;5029189;28;20025;-83
2023/04/30 14:29:35;;;;;;;2.60;0.95;;;;;;;;;;5040687;28;20065;-80
2023/04/30 14:32:03;;;;;;;3.17;1.25;;;;;;;;;;5034639;28;20241;-82
2023/04/30 14:34:28;;;;;;;3.65;1.65;;;;;;;;;;5043798;28;21077;-80